Time;durP1;ratioP1;P1;durP2;ratioP2;P2;SDS_P1;SDS_P2;PMS_P1;PMS_P2;Temp;Humidity;BMP_temperature;BMP_pressure;BME280_temperature;BME280_humidity;BME280_pressure;Samples;Min_cycle;Max_cycle;Signal;HPM_P1;HPM_P2
2021/07/23 04:01:20;;;;;;;6.67;6.07;;;14.00;99.90;;;;;;5497412;23;20589;-67
2021/07/23 04:03:46;;;;;;;6.40;5.90;;;14.00;99.90;;;;;;4930367;29;20456;-66
2021/07/23 04:06:13;;;;;;;6.03;5.63;;;14.10;99.90;;;;;;4940011;28;20556;-67
2021/07/23 04:08:41;;;;;;;6.10;5.70;;;14.10;99.90;;;;;;4935544;29;20505;-67
2021/07/23 04:11:14;;;;;;;6.70;5.97;;;14.10;99.90;;;;;;4927139;29;20483;-66
2021/07/23 04:13:40;;;;;;;6.00;5.60;;;14.20;99.90;;;;;;4916518;29;20574;-67
2021/07/23 04:16:07;;;;;;;6.90;6.30;;;14.20;99.90;;;;;;4915780;29;20494;-67
2021/07/23 04:18:35;;;;;;;6.03;5.43;;;14.20;99.90;;;;;;4916305;29;20466;-67
2021/07/23 04:21:03;;;;;;;6.37;5.97;;;14.30;99.90;;;;;;4915779;29;20553;-68
2021/07/23 04:23:30;;;;;;;6.27;5.77;;;14.30;99.90;;;;;;4916731;29;20522;-71
2021/07/23 04:25:57;;;;;;;5.50;5.20;;;14.40;99.90;;;;;;4916244;29;20493;-72
2021/07/23 04:28:23;;;;;;;5.83;5.60;;;14.40;99.90;;;;;;4916234;29;20596;-71
2021/07/23 04:30:50;;;;;;;5.70;5.30;;;14.50;99.90;;;;;;4915993;29;20557;-71
2021/07/23 04:33:17;;;;;;;5.53;5.13;;;14.50;99.90;;;;;;4916044;29;20484;-68
2021/07/23 04:35:45;;;;;;;8.77;5.90;;;14.60;99.90;;;;;;4916117;29;20533;-70
2021/07/23 04:38:11;;;;;;;6.80;6.30;;;14.60;99.90;;;;;;4916503;29;20462;-71
2021/07/23 04:40:38;;;;;;;5.53;5.30;;;14.70;99.90;;;;;;4916268;29;20602;-71
2021/07/23 04:43:05;;;;;;;6.13;5.73;;;14.70;99.90;;;;;;4915988;29;20621;-72
2021/07/23 04:45:31;;;;;;;5.47;5.17;;;14.80;99.90;;;;;;4896936;29;20963;-71
2021/07/23 04:47:58;;;;;;;6.17;5.67;;;14.80;99.90;;;;;;4897567;29;20491;-72
2021/07/23 04:50:25;;;;;;;6.17;5.13;;;14.90;99.90;;;;;;4912279;29;20637;-71
2021/07/23 04:52:57;;;;;;;6.27;5.87;;;15.00;99.90;;;;;;4914382;29;20486;-68
2021/07/23 04:55:24;;;;;;;6.77;6.30;;;15.00;99.90;;;;;;4915787;29;20471;-69
2021/07/23 04:57:51;;;;;;;5.33;4.93;;;15.10;99.90;;;;;;4912190;29;20475;-68
2021/07/23 05:00:19;;;;;;;6.20;5.67;;;15.10;99.90;;;;;;4912971;29;20474;-69
2021/07/23 05:02:56;;;;;;;7.43;6.83;;;15.20;99.90;;;;;;4915168;29;20466;-70
2021/07/23 05:05:24;;;;;;;6.93;6.43;;;15.20;99.90;;;;;;4915184;29;20611;-70
2021/07/23 05:07:51;;;;;;;6.97;6.27;;;15.20;99.90;;;;;;4915601;29;20481;-69
2021/07/23 05:10:19;;;;;;;7.53;6.50;;;15.20;99.90;;;;;;4915531;29;20802;-68
2021/07/23 05:12:46;;;;;;;7.97;6.73;;;15.20;99.90;;;;;;4915386;29;20838;-68
2021/07/23 05:15:13;;;;;;;8.63;7.50;;;15.20;99.90;;;;;;4915559;29;20466;-69
2021/07/23 05:17:40;;;;;;;8.03;7.23;;;15.20;99.90;;;;;;4915144;29;20549;-68
2021/07/23 05:20:08;;;;;;;9.20;8.30;;;15.20;99.90;;;;;;4914700;29;20467;-68
2021/07/23 05:22:36;;;;;;;8.37;7.47;;;15.20;99.90;;;;;;4915983;29;20895;-66
2021/07/23 05:25:03;;;;;;;13.53;8.33;;;15.30;99.90;;;;;;4915423;29;20585;-67
2021/07/23 05:27:32;;;;;;;9.00;7.70;;;15.30;99.90;;;;;;4915925;29;20494;-71
2021/07/23 05:29:59;;;;;;;8.80;7.67;;;15.40;99.90;;;;;;4914453;29;20962;-68
2021/07/23 05:32:26;;;;;;;9.33;8.33;;;15.50;99.90;;;;;;4914854;29;20987;-67
2021/07/23 05:34:52;;;;;;;7.93;7.13;;;15.60;99.90;;;;;;4914814;29;20918;-67
2021/07/23 05:37:19;;;;;;;10.67;8.90;;;15.50;99.90;;;;;;4915686;29;20857;-68
2021/07/23 05:39:46;;;;;;;11.97;7.90;;;15.60;99.90;;;;;;4915164;29;20466;-67
2021/07/23 05:42:12;;;;;;;8.77;8.07;;;15.60;99.90;;;;;;4909023;29;20486;-69
2021/07/23 05:44:40;;;;;;;9.50;8.30;;;15.60;99.90;;;;;;4914559;29;20465;-67
2021/07/23 05:47:07;;;;;;;7.73;7.03;;;15.70;99.90;;;;;;4915222;29;20566;-67
2021/07/23 05:49:34;;;;;;;9.07;8.27;;;15.70;99.90;;;;;;4915116;29;20612;-69
2021/07/23 05:52:00;;;;;;;8.87;8.07;;;15.80;99.90;;;;;;4911168;29;20593;-69
2021/07/23 05:54:27;;;;;;;8.13;7.43;;;15.80;99.90;;;;;;4915665;29;20479;-68
2021/07/23 05:56:53;;;;;;;8.43;7.80;;;15.90;99.90;;;;;;4915904;29;20467;-70
2021/07/23 05:59:20;;;;;;;9.10;8.40;;;15.90;99.90;;;;;;4915486;29;20477;-70
2021/07/23 06:01:48;;;;;;;8.67;7.97;;;16.00;99.90;;;;;;4917143;29;20533;-69
2021/07/23 06:04:15;;;;;;;9.43;8.10;;;16.10;99.90;;;;;;4918727;29;20513;-70
2021/07/23 06:06:41;;;;;;;8.13;7.43;;;16.20;99.90;;;;;;4919202;29;20842;-70
2021/07/23 06:09:08;;;;;;;8.00;7.20;;;16.30;99.90;;;;;;4918944;29;20505;-70
2021/07/23 06:11:38;;;;;;;8.63;7.83;;;16.30;99.90;;;;;;4915881;29;20490;-69
2021/07/23 06:14:06;;;;;;;8.37;7.57;;;16.40;99.90;;;;;;4913179;29;20462;-71
2021/07/23 06:16:33;;;;;;;8.50;7.67;;;16.50;99.90;;;;;;4918946;29;20458;-71
2021/07/23 06:19:01;;;;;;;9.10;8.07;;;16.50;99.90;;;;;;4919255;29;20485;-71
2021/07/23 06:21:28;;;;;;;7.63;7.13;;;16.60;99.90;;;;;;4919303;29;20491;-71
2021/07/23 06:23:54;;;;;;;7.57;6.97;;;16.70;99.90;;;;;;4919544;29;20497;-70
2021/07/23 06:26:21;;;;;;;8.10;7.40;;;16.80;99.90;;;;;;4919437;29;20557;-71
2021/07/23 06:28:48;;;;;;;8.50;7.80;;;16.80;99.90;;;;;;4918657;29;20525;-69
2021/07/23 06:31:15;;;;;;;7.53;7.03;;;16.80;99.90;;;;;;4917489;29;20482;-71
2021/07/23 06:33:42;;;;;;;9.13;7.10;;;16.80;99.90;;;;;;4917911;29;20473;-71
2021/07/23 06:36:10;;;;;;;7.53;6.80;;;16.80;99.90;;;;;;4918617;29;20534;-71
2021/07/23 06:38:36;;;;;;;8.47;7.80;;;16.90;99.90;;;;;;4919552;29;20470;-70
2021/07/23 06:41:06;;;;;;;8.03;7.30;;;16.90;99.90;;;;;;4930533;29;20497;-71
2021/07/23 06:43:32;;;;;;;7.67;6.87;;;16.80;99.90;;;;;;4924991;29;20545;-71
2021/07/23 06:46:00;;;;;;;8.37;7.67;;;16.90;99.90;;;;;;4935481;29;21065;-70
2021/07/23 06:48:27;;;;;;;8.37;7.77;;;16.90;99.90;;;;;;4930976;29;20467;-70
2021/07/23 06:50:54;;;;;;;7.90;7.10;;;16.90;99.90;;;;;;4913485;29;21024;-69
2021/07/23 06:53:22;;;;;;;7.27;6.67;;;17.00;99.90;;;;;;4918198;29;20510;-71
2021/07/23 06:55:48;;;;;;;7.17;6.67;;;17.10;99.90;;;;;;4920110;29;20588;-71
2021/07/23 06:58:15;;;;;;;8.53;7.03;;;17.10;99.90;;;;;;4918761;29;20535;-71
2021/07/23 07:00:42;;;;;;;7.13;6.50;;;17.20;99.90;;;;;;4921257;29;21282;-69
2021/07/23 07:03:09;;;;;;;6.90;6.37;;;17.20;99.90;;;;;;4923818;29;20494;-72
2021/07/23 07:05:36;;;;;;;12.00;8.77;;;17.30;99.90;;;;;;4930668;29;20461;-71
2021/07/23 07:08:03;;;;;;;7.60;6.60;;;17.40;99.90;;;;;;4928585;29;20509;-70
2021/07/23 07:10:31;;;;;;;7.43;6.77;;;17.50;99.90;;;;;;4919768;29;20482;-70
2021/07/23 07:12:58;;;;;;;8.03;7.43;;;17.60;99.90;;;;;;4923501;29;20536;-69
2021/07/23 07:15:24;;;;;;;7.83;6.80;;;17.80;99.90;;;;;;4937087;29;20461;-69
2021/07/23 07:17:56;;;;;;;6.73;6.23;;;17.90;99.90;;;;;;4926172;29;20466;-69
2021/07/23 07:20:23;;;;;;;6.73;6.40;;;18.00;99.90;;;;;;4918210;29;21011;-69
2021/07/23 07:22:49;;;;;;;6.13;5.77;;;18.10;99.90;;;;;;4917635;29;20470;-69
2021/07/23 07:25:16;;;;;;;6.50;5.90;;;18.10;99.90;;;;;;4918498;29;20940;-70
2021/07/23 07:27:44;;;;;;;6.30;5.80;;;18.00;99.90;;;;;;4918697;29;20897;-70
2021/07/23 07:30:11;;;;;;;7.80;7.20;;;17.90;99.90;;;;;;4919448;29;20462;-71
2021/07/23 07:32:38;;;;;;;7.10;6.50;;;17.80;99.90;;;;;;4921636;29;20467;-69
2021/07/23 07:35:05;;;;;;;7.23;6.53;;;17.80;99.90;;;;;;4919585;29;20820;-71
2021/07/23 07:37:32;;;;;;;6.70;6.30;;;17.70;99.90;;;;;;4918808;29;20462;-71
2021/07/23 07:39:59;;;;;;;7.47;6.87;;;17.70;99.90;;;;;;4922057;29;20478;-71
2021/07/23 07:42:26;;;;;;;9.30;8.40;;;17.70;99.90;;;;;;4918797;29;20490;-67
2021/07/23 07:44:53;;;;;;;9.07;8.03;;;17.70;99.90;;;;;;4916399;29;20526;-68
2021/07/23 07:47:20;;;;;;;8.50;7.70;;;17.70;99.90;;;;;;4935852;29;20485;-68
2021/07/23 07:49:47;;;;;;;10.00;8.40;;;17.80;99.90;;;;;;4936548;29;20477;-69
2021/07/23 07:52:13;;;;;;;9.53;8.60;;;18.00;99.90;;;;;;4937035;29;20981;-69
2021/07/23 07:54:40;;;;;;;9.77;8.67;;;18.00;99.90;;;;;;4924427;29;20799;-69
2021/07/23 07:57:07;;;;;;;7.10;6.50;;;18.10;99.90;;;;;;4918204;29;20469;-70
2021/07/23 07:59:34;;;;;;;6.90;6.40;;;18.20;99.90;;;;;;4918348;29;20470;-70
2021/07/23 08:02:02;;;;;;;7.13;6.53;;;18.20;99.90;;;;;;4917491;29;20617;-69
2021/07/23 08:04:29;;;;;;;6.80;6.20;;;18.40;99.90;;;;;;4927239;29;20823;-69
2021/07/23 08:06:56;;;;;;;5.40;5.00;;;18.60;99.90;;;;;;4937233;29;20577;-70
2021/07/23 08:09:22;;;;;;;5.63;5.23;;;18.80;99.90;;;;;;4937053;29;20532;-70
2021/07/23 08:11:49;;;;;;;5.37;4.97;;;19.10;99.90;;;;;;4925738;29;20972;-68
2021/07/23 08:14:16;;;;;;;3.70;3.60;;;19.40;99.90;;;;;;4915450;29;20480;-69
2021/07/23 08:16:42;;;;;;;4.00;3.80;;;19.70;99.90;;;;;;4910703;29;20484;-69
2021/07/23 08:19:11;;;;;;;3.57;3.47;;;19.80;99.90;;;;;;4898045;29;20928;-69
2021/07/23 08:21:38;;;;;;;4.37;4.20;;;19.90;99.90;;;;;;4896433;29;20495;-68
2021/07/23 08:24:05;;;;;;;4.77;4.47;;;20.00;99.90;;;;;;4910082;29;20982;-70
2021/07/23 08:26:31;;;;;;;4.70;4.10;;;19.90;99.90;;;;;;4936363;29;21033;-70
2021/07/23 08:28:58;;;;;;;4.40;4.20;;;19.80;99.90;;;;;;4936307;29;20470;-69
2021/07/23 08:31:27;;;;;;;3.10;2.90;;;19.60;99.90;;;;;;4935839;29;20559;-69
2021/07/23 08:33:54;;;;;;;4.20;4.00;;;19.60;99.90;;;;;;4930997;29;20473;-70
2021/07/23 08:36:22;;;;;;;4.97;4.57;;;19.50;99.90;;;;;;4917455;29;20494;-70
2021/07/23 08:38:48;;;;;;;4.77;4.47;;;19.40;99.90;;;;;;4917506;29;20882;-70
2021/07/23 08:41:15;;;;;;;4.57;4.37;;;19.50;99.90;;;;;;4917015;29;21009;-70
2021/07/23 08:43:41;;;;;;;6.23;4.57;;;19.50;99.90;;;;;;4919085;29;20955;-68
2021/07/23 08:46:09;;;;;;;4.43;4.13;;;19.60;99.90;;;;;;4934737;29;20938;-67
2021/07/23 08:48:36;;;;;;;4.40;4.10;;;19.70;99.90;;;;;;4935843;29;21317;-68
2021/07/23 08:51:03;;;;;;;4.37;4.07;;;19.70;99.90;;;;;;4936109;29;20493;-70
2021/07/23 08:53:31;;;;;;;4.17;3.97;;;19.90;99.90;;;;;;4934472;29;20481;-67
2021/07/23 08:55:57;;;;;;;4.83;4.63;;;20.10;99.90;;;;;;4917316;29;20463;-69
2021/07/23 08:58:24;;;;;;;4.27;4.07;;;20.30;99.90;;;;;;4916918;29;20467;-69
2021/07/23 09:00:58;;;;;;;3.83;3.63;;;20.30;99.90;;;;;;4912501;29;20509;-67
2021/07/23 09:03:28;;;;;;;4.43;4.13;;;20.30;99.90;;;;;;4898178;29;20531;-69
2021/07/23 09:05:55;;;;;;;3.97;3.77;;;20.40;99.90;;;;;;4935934;29;20927;-67
2021/07/23 09:08:23;;;;;;;4.13;3.93;;;20.60;99.90;;;;;;4935609;29;21086;-67
2021/07/23 09:11:03;;;;;;;3.90;3.70;;;20.70;99.90;;;;;;4935387;29;20481;-68
2021/07/23 09:13:30;;;;;;;4.07;3.87;;;21.10;99.90;;;;;;4934173;29;20493;-68
2021/07/23 09:15:58;;;;;;;6.37;4.20;;;21.30;99.90;;;;;;4915112;29;20478;-67
2021/07/23 09:18:28;;;;;;;4.27;3.90;;;21.00;99.90;;;;;;4916012;29;20454;-68
2021/07/23 09:20:56;;;;;;;3.80;3.60;;;20.70;99.90;;;;;;4915340;29;20822;-68
2021/07/23 09:23:29;;;;;;;3.70;3.60;;;20.70;99.90;;;;;;4915916;29;20569;-65
2021/07/23 09:25:57;;;;;;;3.17;2.97;;;20.80;99.90;;;;;;4917038;29;20494;-66
2021/07/23 09:28:32;;;;;;;3.87;3.67;;;20.90;99.90;;;;;;4913760;29;21080;-66
2021/07/23 09:31:00;;;;;;;3.80;3.70;;;21.10;99.90;;;;;;4912980;29;20519;-66
2021/07/23 09:33:30;;;;;;;3.83;3.53;;;20.80;99.90;;;;;;4914004;29;20471;-68
2021/07/23 09:35:57;;;;;;;6.80;4.00;;;20.80;99.90;;;;;;4916315;29;20473;-66
2021/07/23 09:38:25;;;;;;;4.20;4.00;;;20.60;99.90;;;;;;4920047;29;20474;-66
2021/07/23 09:40:53;;;;;;;3.20;3.10;;;20.80;99.90;;;;;;4918076;29;20486;-66
2021/07/23 09:43:31;;;;;;;3.83;3.63;;;21.00;99.90;;;;;;4919732;29;20553;-69
2021/07/23 09:46:27;;;;;;;4.40;3.90;;;21.30;99.90;;;;;;4919158;29;20951;-66
2021/07/23 09:49:00;;;;;;;3.87;3.57;;;21.40;99.90;;;;;;4919249;29;20494;-66
2021/07/23 09:51:27;;;;;;;4.83;4.43;;;21.50;99.90;;;;;;4919565;29;21041;-66
2021/07/23 09:53:54;;;;;;;5.30;4.80;;;21.30;99.90;;;;;;4922959;29;20560;-71
2021/07/23 09:56:23;;;;;;;5.20;4.70;;;21.30;99.90;;;;;;4919507;29;20471;-69
2021/07/23 09:59:01;;;;;;;4.87;4.03;;;21.40;99.90;;;;;;4919748;29;20477;-69
2021/07/23 10:01:37;;;;;;;4.73;4.33;;;21.40;99.90;;;;;;4918197;29;20504;-70
2021/07/23 10:04:10;;;;;;;5.13;4.83;;;21.20;99.90;;;;;;4918317;29;20462;-70
2021/07/23 10:06:43;;;;;;;5.40;4.90;;;21.20;99.90;;;;;;4918977;29;20522;-69
2021/07/23 10:09:11;;;;;;;5.07;4.77;;;21.20;99.90;;;;;;4918754;29;20462;-70
2021/07/23 10:11:40;;;;;;;6.23;5.73;;;21.20;99.90;;;;;;4918187;29;20505;-70
2021/07/23 10:14:10;;;;;;;5.87;5.50;;;21.40;99.90;;;;;;4918650;29;20832;-70
2021/07/23 10:16:38;;;;;;;6.40;5.90;;;21.50;99.90;;;;;;4911782;29;20474;-70
2021/07/23 10:19:06;;;;;;;6.10;5.80;;;21.60;99.90;;;;;;4920964;29;20458;-68
2021/07/23 10:21:33;;;;;;;6.30;5.90;;;21.50;99.90;;;;;;4918258;29;20483;-69
2021/07/23 10:24:01;;;;;;;6.77;6.27;;;21.50;99.90;;;;;;4937479;29;20469;-68
2021/07/23 10:26:29;;;;;;;6.60;6.10;;;21.60;99.90;;;;;;4920619;29;20474;-68
2021/07/23 10:29:02;;;;;;;5.03;4.70;;;21.50;99.90;;;;;;4918482;29;20848;-68
2021/07/23 10:31:48;;;;;;;5.20;4.80;;;21.60;99.90;;;;;;4933771;29;20508;-68
2021/07/23 10:34:32;;;;;;;5.20;4.87;;;21.60;99.90;;;;;;4921837;29;20565;-68
2021/07/23 10:37:00;;;;;;;4.93;4.67;;;21.40;99.90;;;;;;4916199;29;20466;-69
2021/07/23 10:39:27;;;;;;;4.90;4.60;;;21.50;99.90;;;;;;4915890;29;20531;-70
2021/07/23 10:42:33;;;;;;;6.20;5.00;;;21.50;99.90;;;;;;4918550;29;20505;-68
2021/07/23 10:45:00;;;;;;;4.47;4.27;;;21.40;99.90;;;;;;4917865;29;20462;-68
2021/07/23 10:47:42;;;;;;;4.40;4.10;;;21.40;99.90;;;;;;4931428;29;20489;-67
2021/07/23 10:50:14;;;;;;;4.53;4.33;;;21.30;99.90;;;;;;4923939;29;20463;-69
2021/07/23 10:52:41;;;;;;;4.17;3.97;;;21.20;99.90;;;;;;4917693;29;20498;-68
2021/07/23 10:55:17;;;;;;;4.10;3.90;;;21.30;99.90;;;;;;4918799;29;20470;-68
2021/07/23 10:57:44;;;;;;;5.80;5.50;;;21.20;99.90;;;;;;4918793;29;20572;-68
2021/07/23 11:00:11;;;;;;;6.40;5.60;;;21.20;99.90;;;;;;4918620;29;20885;-69
2021/07/23 11:02:44;;;;;;;6.40;5.90;;;21.10;99.90;;;;;;4927248;29;20844;-68
2021/07/23 11:05:18;;;;;;;7.40;6.80;;;21.00;99.90;;;;;;4909441;29;20558;-68
2021/07/23 11:07:46;;;;;;;7.47;6.90;;;20.90;99.90;;;;;;4917678;29;20485;-67
2021/07/23 11:10:20;;;;;;;4.80;4.50;;;20.90;99.90;;;;;;4930415;29;20902;-68
2021/07/23 11:12:47;;;;;;;5.20;4.80;;;20.90;99.90;;;;;;4927387;29;20473;-67
2021/07/23 11:15:14;;;;;;;5.10;4.70;;;21.00;99.90;;;;;;4932079;29;20466;-67
2021/07/23 11:17:56;;;;;;;4.47;4.00;;;21.00;99.90;;;;;;4917138;29;20461;-68
2021/07/23 11:20:24;;;;;;;4.37;4.07;;;21.20;99.90;;;;;;4917454;29;20462;-69
2021/07/23 11:22:52;;;;;;;4.70;4.50;;;21.30;99.90;;;;;;4929586;29;20501;-67
2021/07/23 11:25:20;;;;;;;5.00;4.70;;;21.50;99.90;;;;;;4917481;29;20565;-67
2021/07/23 11:27:51;;;;;;;4.50;4.20;;;21.70;99.90;;;;;;4917122;29;20565;-68
2021/07/23 11:30:21;;;;;;;4.57;4.27;;;21.70;99.90;;;;;;4898614;29;20779;-68
2021/07/23 11:32:49;;;;;;;4.77;4.40;;;21.80;99.90;;;;;;4918943;29;20462;-67
2021/07/23 11:35:17;;;;;;;6.40;4.23;;;21.80;99.90;;;;;;4917191;29;20553;-68
2021/07/23 11:37:46;;;;;;;3.40;3.23;;;21.80;99.90;;;;;;4917036;29;20470;-68
2021/07/23 11:40:15;;;;;;;3.67;3.47;;;22.00;99.90;;;;;;4917120;29;20533;-69
2021/07/23 11:42:44;;;;;;;3.87;3.67;;;22.10;99.90;;;;;;4928124;29;20961;-69
2021/07/23 11:45:13;;;;;;;3.40;3.20;;;22.10;99.90;;;;;;4936108;29;20544;-68
2021/07/23 11:47:41;;;;;;;3.27;3.17;;;22.20;99.90;;;;;;4916851;29;20541;-68
2021/07/23 11:50:10;;;;;;;3.57;3.20;;;22.30;99.90;;;;;;4915688;29;20474;-69
2021/07/23 11:52:38;;;;;;;2.60;2.50;;;22.20;99.90;;;;;;4916063;29;20473;-68
2021/07/23 11:55:06;;;;;;;3.17;3.07;;;22.20;99.90;;;;;;4916940;29;20474;-68
2021/07/23 11:57:37;;;;;;;2.60;2.50;;;22.10;99.90;;;;;;4916433;29;20470;-68
2021/07/23 12:00:05;;;;;;;2.63;2.53;;;22.00;99.90;;;;;;4916446;29;20828;-69
2021/07/23 12:02:31;;;;;;;3.20;3.10;;;22.00;99.90;;;;;;4912587;29;20498;-67
2021/07/23 12:05:09;;;;;;;3.10;3.00;;;22.10;99.90;;;;;;4926369;29;20463;-68
2021/07/23 12:07:38;;;;;;;3.10;3.00;;;22.10;99.90;;;;;;4903270;29;20942;-66
2021/07/23 12:10:06;;;;;;;3.20;3.10;;;22.10;99.90;;;;;;4916747;29;20940;-68
2021/07/23 12:12:34;;;;;;;2.87;2.77;;;22.30;99.90;;;;;;4916373;29;20537;-66
2021/07/23 12:15:06;;;;;;;3.40;3.30;;;22.70;99.90;;;;;;4916709;29;20469;-66
2021/07/23 12:17:34;;;;;;;3.57;3.37;;;22.90;99.90;;;;;;4919349;29;20794;-67
2021/07/23 12:20:01;;;;;;;3.07;2.93;;;23.20;99.90;;;;;;4935257;29;20465;-67
2021/07/23 12:22:27;;;;;;;3.07;2.97;;;23.40;99.90;;;;;;4935433;29;20501;-67
2021/07/23 12:24:55;;;;;;;2.77;2.67;;;23.30;99.90;;;;;;4936020;29;20462;-68
2021/07/23 12:27:23;;;;;;;2.87;2.77;;;23.10;99.90;;;;;;4921041;29;20939;-67
2021/07/23 12:29:50;;;;;;;3.57;3.43;;;22.90;99.90;;;;;;4910812;29;20586;-66
2021/07/23 12:32:22;;;;;;;2.87;2.77;;;22.90;99.90;;;;;;4897552;29;20495;-66
2021/07/23 12:34:55;;;;;;;3.70;3.50;;;22.70;99.90;;;;;;4897651;29;20486;-69
2021/07/23 12:37:22;;;;;;;4.80;4.60;;;22.70;99.90;;;;;;4926495;29;20501;-68
2021/07/23 12:39:58;;;;;;;4.70;4.40;;;22.70;99.90;;;;;;4935950;29;20473;-67
2021/07/23 12:42:25;;;;;;;5.07;4.33;;;22.50;99.90;;;;;;4935411;29;20843;-66
2021/07/23 12:44:53;;;;;;;4.40;4.20;;;22.40;99.90;;;;;;4934943;29;20470;-67
2021/07/23 12:47:21;;;;;;;5.33;5.03;;;22.50;99.90;;;;;;4921354;29;20908;-66
2021/07/23 12:49:49;;;;;;;4.10;3.90;;;22.40;99.90;;;;;;4916867;29;20486;-66
2021/07/23 12:52:17;;;;;;;4.17;3.97;;;22.40;99.90;;;;;;4915822;29;20577;-66
2021/07/23 12:54:44;;;;;;;3.90;3.80;;;22.60;99.90;;;;;;4913673;29;20474;-67
2021/07/23 12:57:20;;;;;;;4.90;4.40;;;22.50;99.90;;;;;;4909573;29;20474;-69
2021/07/23 12:59:48;;;;;;;6.10;5.10;;;22.50;99.90;;;;;;4915533;29;20466;-68
2021/07/23 13:02:16;;;;;;;5.40;5.10;;;22.40;99.90;;;;;;4911882;29;20864;-68
2021/07/23 13:04:43;;;;;;;4.13;3.93;;;22.40;99.90;;;;;;4915515;29;20458;-69
2021/07/23 13:07:12;;;;;;;5.80;5.30;;;22.30;99.90;;;;;;4916044;29;20877;-67
2021/07/23 13:09:47;;;;;;;6.83;6.33;;;22.20;99.90;;;;;;4915814;29;20494;-67
2021/07/23 13:12:15;;;;;;;5.97;5.47;;;22.00;99.90;;;;;;4915270;29;20501;-69
2021/07/23 13:14:43;;;;;;;6.27;5.87;;;22.10;99.90;;;;;;4915555;29;20833;-67
2021/07/23 13:17:11;;;;;;;7.47;6.93;;;22.20;99.90;;;;;;4915785;29;20498;-67
2021/07/23 13:19:37;;;;;;;7.17;6.67;;;22.20;99.90;;;;;;4914161;29;20485;-67
2021/07/23 13:22:06;;;;;;;7.60;6.90;;;22.20;99.90;;;;;;4915286;29;20490;-67
2021/07/23 13:24:33;;;;;;;8.70;7.90;;;22.30;99.90;;;;;;4915527;29;20545;-67
2021/07/23 13:27:00;;;;;;;8.50;7.80;;;22.50;99.90;;;;;;4915403;29;20479;-68
2021/07/23 13:29:27;;;;;;;8.67;7.97;;;22.70;99.90;;;;;;4914484;29;20513;-71
2021/07/23 13:31:55;;;;;;;6.50;6.10;;;22.90;99.90;;;;;;4915082;29;20494;-67
2021/07/23 13:34:23;;;;;;;7.33;6.83;;;23.00;99.90;;;;;;4914828;29;20901;-67
2021/07/23 13:36:55;;;;;;;5.70;5.40;;;23.20;99.90;;;;;;4915555;29;20470;-67
2021/07/23 13:39:26;;;;;;;5.50;5.20;;;23.20;99.90;;;;;;4915104;29;20473;-70
2021/07/23 13:41:53;;;;;;;6.63;6.23;;;23.30;99.90;;;;;;4915715;29;20498;-68
2021/07/23 13:44:25;;;;;;;5.77;5.47;;;23.40;99.90;;;;;;4914943;29;20474;-67
2021/07/23 13:46:52;;;;;;;5.43;5.20;;;23.60;99.90;;;;;;4915380;29;20614;-68
2021/07/23 13:49:20;;;;;;;6.30;5.80;;;23.50;99.90;;;;;;4915142;29;20561;-70
2021/07/23 13:51:46;;;;;;;5.67;5.30;;;23.40;99.90;;;;;;4907647;29;20479;-68
2021/07/23 13:54:13;;;;;;;5.43;4.93;;;23.40;99.90;;;;;;4918956;29;20470;-67
2021/07/23 13:56:40;;;;;;;4.40;4.13;;;23.50;99.90;;;;;;4920999;29;20502;-67
2021/07/23 13:59:07;;;;;;;5.87;5.47;;;23.60;99.90;;;;;;4916490;29;20465;-67
2021/07/23 14:01:35;;;;;;;4.30;4.00;;;23.40;99.90;;;;;;4915293;29;20866;-67
2021/07/23 14:04:01;;;;;;;4.43;4.23;;;23.50;99.90;;;;;;4914531;29;20565;-67
2021/07/23 14:06:30;;;;;;;4.27;4.07;;;23.60;99.90;;;;;;4916146;29;20466;-68
2021/07/23 14:08:58;;;;;;;3.40;3.30;;;23.70;99.90;;;;;;4915376;29;20982;-67
2021/07/23 14:11:25;;;;;;;3.80;3.60;;;23.80;99.90;;;;;;4915203;29;20996;-67
2021/07/23 14:13:52;;;;;;;2.83;2.73;;;23.60;99.90;;;;;;4914666;29;20463;-67
2021/07/23 14:16:19;;;;;;;3.10;2.90;;;23.50;99.90;;;;;;4914404;29;21016;-67
2021/07/23 14:18:46;;;;;;;4.03;3.83;;;23.40;99.90;;;;;;4913906;29;20510;-67
2021/07/23 14:21:14;;;;;;;4.10;3.90;;;23.20;99.90;;;;;;4914638;29;20494;-65
2021/07/23 14:23:42;;;;;;;3.73;3.53;;;23.10;99.90;;;;;;4918071;29;20855;-67
2021/07/23 14:26:09;;;;;;;3.43;3.30;;;23.00;99.90;;;;;;4918331;29;20485;-67
2021/07/23 14:28:36;;;;;;;3.70;3.60;;;23.10;99.90;;;;;;4913323;29;20501;-66
2021/07/23 14:31:02;;;;;;;4.50;4.13;;;22.90;99.90;;;;;;4913551;29;20493;-66
2021/07/23 14:33:29;;;;;;;4.10;3.90;;;22.80;99.90;;;;;;4917703;29;20463;-67
2021/07/23 14:35:56;;;;;;;3.73;3.63;;;22.90;99.90;;;;;;4918429;29;20470;-67
2021/07/23 14:38:22;;;;;;;4.30;4.00;;;23.20;99.90;;;;;;4917849;29;20470;-68
2021/07/23 14:40:51;;;;;;;4.40;4.20;;;23.30;99.90;;;;;;4917522;29;20490;-66
2021/07/23 14:43:17;;;;;;;4.40;4.10;;;23.20;99.90;;;;;;4918087;29;20542;-69
2021/07/23 14:45:44;;;;;;;4.40;4.10;;;23.10;99.90;;;;;;4918017;29;20474;-65
2021/07/23 14:48:10;;;;;;;4.77;4.17;;;23.10;99.90;;;;;;4918224;29;20462;-66
2021/07/23 14:50:38;;;;;;;4.03;3.83;;;23.10;99.90;;;;;;4916193;29;20501;-67
2021/07/23 14:53:05;;;;;;;3.90;3.63;;;23.10;99.90;;;;;;4917658;29;20466;-66
2021/07/23 14:55:31;;;;;;;3.67;3.43;;;23.10;99.90;;;;;;4918036;29;20514;-66
2021/07/23 14:58:01;;;;;;;3.83;3.70;;;23.10;99.90;;;;;;4917830;29;20501;-66
2021/07/23 15:00:27;;;;;;;4.03;3.60;;;23.00;99.90;;;;;;4916153;29;20490;-69
2021/07/23 15:02:54;;;;;;;3.70;3.60;;;23.00;99.90;;;;;;4914287;29;20470;-66
2021/07/23 15:05:21;;;;;;;4.70;4.40;;;22.90;99.90;;;;;;4917045;29;20474;-65
2021/07/23 15:07:49;;;;;;;5.00;4.80;;;22.90;99.90;;;;;;4917663;29;20470;-67
2021/07/23 15:10:16;;;;;;;3.73;3.53;;;22.90;99.90;;;;;;4916321;29;20593;-68
2021/07/23 15:12:43;;;;;;;6.20;4.83;;;22.80;99.90;;;;;;4916165;29;20466;-69
2021/07/23 15:15:14;;;;;;;4.13;3.83;;;22.60;99.90;;;;;;4916976;29;20494;-69
2021/07/23 15:17:42;;;;;;;4.70;4.30;;;22.50;99.90;;;;;;4917237;29;20959;-70
2021/07/23 15:20:11;;;;;;;4.00;3.77;;;22.50;99.90;;;;;;4918463;29;20895;-70
2021/07/23 15:22:37;;;;;;;3.90;3.80;;;22.60;99.90;;;;;;4919361;29;20948;-70
2021/07/23 15:25:05;;;;;;;4.47;4.20;;;22.70;99.90;;;;;;4920242;29;20609;-70
2021/07/23 15:27:32;;;;;;;4.13;3.93;;;22.80;99.90;;;;;;4919371;29;20470;-70
2021/07/23 15:30:00;;;;;;;3.90;3.70;;;22.90;99.90;;;;;;4919252;29;20604;-69
2021/07/23 15:32:28;;;;;;;4.00;3.80;;;23.10;99.90;;;;;;4916061;29;20521;-68
2021/07/23 15:34:55;;;;;;;4.13;3.93;;;23.10;99.90;;;;;;4917480;29;20478;-70
2021/07/23 15:37:22;;;;;;;3.57;3.37;;;23.10;99.90;;;;;;4917830;29;20621;-69
2021/07/23 15:39:48;;;;;;;4.40;4.20;;;23.10;99.90;;;;;;4909179;29;20474;-69
2021/07/23 15:42:15;;;;;;;4.20;3.90;;;23.20;99.90;;;;;;4897175;29;20510;-67
2021/07/23 15:44:41;;;;;;;3.87;3.67;;;23.20;99.90;;;;;;4910358;29;20466;-67
2021/07/23 15:47:09;;;;;;;4.00;3.80;;;23.30;99.90;;;;;;4916061;29;20522;-65
2021/07/23 15:49:39;;;;;;;3.73;3.53;;;23.40;99.90;;;;;;4917992;29;20568;-66
2021/07/23 15:52:07;;;;;;;3.87;3.77;;;23.50;99.90;;;;;;4909083;29;20552;-67
2021/07/23 15:54:33;;;;;;;3.27;3.17;;;23.70;99.90;;;;;;4935585;29;20993;-67
2021/07/23 15:57:00;;;;;;;3.30;3.20;;;23.90;99.90;;;;;;4915846;29;20478;-66
2021/07/23 15:59:27;;;;;;;3.90;3.80;;;23.90;99.90;;;;;;4916547;29;20463;-67
2021/07/23 16:01:53;;;;;;;5.13;3.30;;;23.90;99.90;;;;;;4916473;29;20996;-67
2021/07/23 16:04:20;;;;;;;3.40;3.20;;;24.10;99.90;;;;;;4915150;29;20497;-70
2021/07/23 16:06:49;;;;;;;3.83;3.63;;;24.30;99.90;;;;;;4917169;29;20474;-70
2021/07/23 16:09:16;;;;;;;3.63;3.53;;;24.40;99.90;;;;;;4917235;29;20537;-71
2021/07/23 16:11:44;;;;;;;4.50;4.10;;;24.50;99.90;;;;;;4918673;29;20527;-68
2021/07/23 16:14:10;;;;;;;3.90;3.60;;;24.40;99.90;;;;;;4916706;29;20827;-70
2021/07/23 16:16:39;;;;;;;3.23;3.13;;;24.30;99.90;;;;;;4915816;29;20992;-67
2021/07/23 16:19:06;;;;;;;3.50;3.40;;;24.10;99.90;;;;;;4916880;29;20451;-70
2021/07/23 16:21:33;;;;;;;3.67;3.57;;;24.10;99.90;;;;;;4916907;29;20491;-70
2021/07/23 16:24:05;;;;;;;4.23;3.83;;;24.00;99.90;;;;;;4932842;29;20521;-70
2021/07/23 16:26:34;;;;;;;3.57;3.37;;;23.90;99.90;;;;;;4922779;29;20475;-69
2021/07/23 16:29:01;;;;;;;3.73;3.53;;;23.90;99.90;;;;;;4915357;29;20536;-70
2021/07/23 16:31:28;;;;;;;3.90;3.70;;;23.80;99.90;;;;;;4905242;29;20490;-71
2021/07/23 16:33:55;;;;;;;3.57;3.37;;;23.80;99.90;;;;;;4916508;29;20493;-70
2021/07/23 16:36:21;;;;;;;3.73;3.60;;;23.70;99.90;;;;;;4916960;29;20474;-70
2021/07/23 16:38:48;;;;;;;3.53;3.33;;;23.60;99.90;;;;;;4918910;29;20480;-69
2021/07/23 16:41:16;;;;;;;3.20;3.10;;;23.60;99.90;;;;;;4917062;29;20974;-70
2021/07/23 16:43:43;;;;;;;3.80;3.60;;;23.40;99.90;;;;;;4915610;29;20948;-70
2021/07/23 16:46:09;;;;;;;3.70;3.60;;;23.30;99.90;;;;;;4916163;29;20533;-70
2021/07/23 16:48:36;;;;;;;3.60;3.50;;;23.30;99.90;;;;;;4922213;29;20474;-70
2021/07/23 16:51:02;;;;;;;3.70;3.50;;;23.20;99.90;;;;;;4933769;29;20493;-70